createdAt,value
2022-09-06T00:00:31.070Z,20.30
2022-09-06T00:02:59.500Z,20.29
2022-09-06T00:05:32.090Z,20.27
2022-09-06T00:08:05.607Z,20.22
2022-09-06T00:10:34.207Z,20.18
2022-09-06T00:13:07.896Z,20.15
2022-09-06T00:15:37.122Z,20.12
2022-09-06T00:18:07.320Z,20.10
2022-09-06T00:20:41.453Z,20.07
2022-09-06T00:23:10.103Z,20.03
2022-09-06T00:25:38.489Z,20.02
2022-09-06T00:28:06.985Z,19.99
2022-09-06T00:30:35.382Z,19.96
2022-09-06T00:33:03.825Z,19.94
2022-09-06T00:35:32.200Z,19.92
2022-09-06T00:38:02.269Z,19.90
2022-09-06T00:40:34.086Z,19.85
2022-09-06T00:43:04.007Z,19.84
2022-09-06T00:45:33.097Z,19.83
2022-09-06T00:48:02.612Z,19.78
2022-09-06T00:50:30.975Z,19.75
2022-09-06T00:52:59.499Z,19.74
2022-09-06T00:55:28.804Z,19.71
2022-09-06T00:57:57.265Z,19.71
2022-09-06T01:00:25.656Z,19.69
2022-09-06T01:02:54.728Z,19.66
2022-09-06T01:05:32.690Z,19.65
2022-09-06T01:08:33.457Z,19.59
2022-09-06T01:11:39.618Z,19.55
2022-09-06T01:14:34.288Z,19.51
2022-09-06T01:17:30.513Z,19.48
2022-09-06T01:20:35.528Z,19.46
2022-09-06T01:23:29.879Z,19.43
2022-09-06T01:26:05.017Z,19.40
2022-09-06T01:28:37.490Z,19.39
2022-09-06T01:31:39.019Z,19.37
2022-09-06T01:34:07.388Z,19.36
2022-09-06T01:37:06.241Z,19.35
2022-09-06T01:39:34.097Z,19.34
2022-09-06T01:42:17.658Z,19.31
2022-09-06T01:45:08.805Z,19.28
2022-09-06T01:47:42.962Z,19.25
2022-09-06T01:50:28.882Z,19.25
2022-09-06T01:53:22.809Z,19.23
2022-09-06T01:56:03.282Z,19.22
2022-09-06T01:58:58.903Z,19.19
2022-09-06T02:01:45.251Z,19.17
2022-09-06T02:04:30.031Z,19.14
2022-09-06T02:07:02.794Z,19.13
2022-09-06T02:09:43.597Z,19.12
2022-09-06T02:12:14.114Z,19.11
2022-09-06T02:14:49.819Z,19.07
2022-09-06T02:17:23.693Z,19.05
2022-09-06T02:19:52.139Z,19.04
2022-09-06T02:22:24.360Z,19.03
2022-09-06T02:24:55.086Z,19.03
2022-09-06T02:27:23.712Z,19.01
2022-09-06T02:29:52.680Z,19.01
2022-09-06T02:32:26.170Z,18.99
2022-09-06T02:34:56.495Z,18.99
2022-09-06T02:37:27.812Z,18.99
2022-09-06T02:39:56.594Z,18.99
2022-09-06T02:42:25.694Z,18.97
2022-09-06T02:44:53.984Z,18.96
2022-09-06T02:47:22.271Z,18.96
2022-09-06T02:49:50.691Z,18.95
2022-09-06T02:52:20.611Z,18.94
2022-09-06T02:54:48.945Z,18.93
2022-09-06T02:57:17.371Z,18.91
2022-09-06T02:59:46.459Z,18.90
2022-09-06T03:02:15.904Z,18.89
2022-09-06T03:04:44.336Z,18.86
2022-09-06T03:07:12.728Z,18.84
2022-09-06T03:09:41.701Z,18.83
2022-09-06T03:12:10.064Z,18.83
2022-09-06T03:14:38.423Z,18.82
2022-09-06T03:17:13.632Z,18.81
2022-09-06T03:19:42.053Z,18.81
2022-09-06T03:22:10.834Z,18.79
2022-09-06T03:24:39.142Z,18.77
2022-09-06T03:27:07.473Z,18.76
2022-09-06T03:29:35.915Z,18.74
2022-09-06T03:32:04.258Z,18.72
2022-09-06T03:34:32.878Z,18.70
2022-09-06T03:37:01.300Z,18.70
2022-09-06T03:39:29.851Z,18.67
2022-09-06T03:41:59.848Z,18.66
2022-09-06T03:44:28.314Z,18.64
2022-09-06T03:46:56.675Z,18.63
2022-09-06T03:49:25.134Z,18.61
2022-09-06T03:51:53.605Z,18.58
2022-09-06T03:54:22.035Z,18.56
2022-09-06T03:56:50.457Z,18.55
2022-09-06T03:59:21.621Z,18.56
2022-09-06T04:01:49.966Z,18.53
2022-09-06T04:04:18.331Z,18.52
2022-09-06T04:06:46.868Z,18.51
2022-09-06T04:09:15.554Z,18.51
2022-09-06T04:11:45.185Z,18.51
2022-09-06T04:14:13.661Z,18.49
2022-09-06T04:16:42.135Z,18.49
2022-09-06T04:19:10.515Z,18.48
2022-09-06T04:21:38.982Z,18.46
2022-09-06T04:24:07.399Z,18.45
2022-09-06T04:26:35.719Z,18.44
2022-09-06T04:29:04.157Z,18.43
2022-09-06T04:31:32.703Z,18.44
2022-09-06T04:34:01.104Z,18.43
2022-09-06T04:36:30.076Z,18.40
2022-09-06T04:38:58.500Z,18.39
2022-09-06T04:41:26.823Z,18.38
2022-09-06T04:43:55.153Z,18.37
2022-09-06T04:46:27.011Z,18.36
2022-09-06T04:48:56.405Z,18.35
2022-09-06T04:51:25.443Z,18.35
2022-09-06T04:53:54.461Z,18.33
2022-09-06T04:56:24.469Z,18.31
2022-09-06T04:58:55.447Z,18.31
2022-09-06T05:01:26.313Z,18.33
2022-09-06T05:03:56.987Z,18.31
2022-09-06T05:06:25.875Z,18.30
2022-09-06T05:08:54.297Z,18.30
2022-09-06T05:11:23.024Z,18.29
2022-09-06T05:13:51.420Z,18.29
2022-09-06T05:16:19.897Z,18.28
2022-09-06T05:18:51.317Z,18.27
2022-09-06T05:21:19.695Z,18.26
2022-09-06T05:23:48.063Z,18.27
2022-09-06T05:26:16.403Z,18.29
2022-09-06T05:28:44.709Z,18.28
2022-09-06T05:31:27.454Z,18.28
2022-09-06T05:33:57.442Z,18.27
2022-09-06T05:36:27.529Z,18.25
2022-09-06T05:38:57.071Z,18.21
2022-09-06T05:41:29.737Z,18.17
2022-09-06T05:43:58.312Z,18.15
2022-09-06T05:46:28.706Z,18.14
2022-09-06T05:49:01.254Z,18.12
2022-09-06T05:51:31.542Z,18.11
2022-09-06T05:53:59.983Z,18.11
2022-09-06T05:56:28.669Z,18.08
2022-09-06T05:58:57.866Z,18.07
2022-09-06T06:01:28.030Z,18.06
2022-09-06T06:04:02.453Z,18.07
2022-09-06T06:06:34.710Z,18.11
2022-09-06T06:09:03.801Z,18.13
2022-09-06T06:11:32.264Z,18.12
2022-09-06T06:14:01.303Z,18.10
2022-09-06T06:16:30.427Z,18.07
2022-09-06T06:18:59.013Z,18.03
2022-09-06T06:21:30.050Z,17.98
2022-09-06T06:24:01.183Z,17.98
2022-09-06T06:26:34.928Z,17.99
2022-09-06T06:29:06.014Z,17.97
2022-09-06T06:31:34.801Z,17.91
2022-09-06T06:34:04.186Z,17.86
2022-09-06T06:36:36.238Z,17.81
2022-09-06T06:39:08.736Z,17.80
2022-09-06T06:41:37.752Z,17.76
2022-09-06T06:44:23.792Z,17.76
2022-09-06T06:46:52.139Z,17.76
2022-09-06T06:49:20.608Z,17.76
2022-09-06T06:51:48.937Z,17.77
2022-09-06T06:54:17.417Z,17.80
2022-09-06T06:56:45.899Z,17.87
2022-09-06T06:59:15.780Z,17.95
2022-09-06T07:01:44.789Z,18.03
2022-09-06T07:04:14.291Z,18.14
2022-09-06T07:12:27.880Z,18.36
2022-09-06T07:14:56.620Z,18.39
2022-09-06T07:17:25.025Z,18.46
2022-09-06T07:22:42.270Z,18.50
2022-09-06T07:25:14.460Z,18.53
2022-09-06T07:30:20.192Z,18.57
2022-09-06T07:32:49.414Z,18.59
2022-09-06T07:35:20.309Z,18.61
2022-09-06T07:38:00.115Z,18.62
2022-09-06T07:40:30.804Z,18.64
2022-09-06T07:43:00.017Z,18.67
2022-09-06T07:45:28.817Z,18.70
2022-09-06T07:48:00.956Z,18.76
2022-09-06T07:50:49.609Z,18.82
2022-09-06T07:53:29.265Z,18.92
2022-09-06T07:56:01.306Z,19.01
2022-09-06T07:58:30.196Z,19.16
2022-09-06T08:01:19.081Z,19.37
2022-09-06T08:03:48.486Z,19.54
2022-09-06T08:06:16.881Z,19.79
2022-09-06T08:09:01.162Z,20.02
2022-09-06T08:11:33.265Z,20.35
2022-09-06T08:14:04.390Z,20.56
2022-09-06T08:16:34.745Z,20.67
2022-09-06T08:19:08.864Z,20.62
2022-09-06T08:21:37.222Z,20.59
2022-09-06T08:24:09.897Z,20.75
2022-09-06T08:26:43.261Z,20.87
2022-09-06T08:29:13.585Z,20.92
2022-09-06T08:31:43.651Z,20.95
2022-09-06T08:34:14.399Z,20.89
2022-09-06T08:36:45.245Z,20.81
2022-09-06T08:39:13.527Z,20.88
2022-09-06T08:42:06.856Z,21.08
2022-09-06T08:44:59.244Z,21.36
2022-09-06T08:47:27.873Z,21.55
2022-09-06T08:50:07.054Z,21.61
2022-09-06T08:53:17.854Z,21.50
2022-09-06T08:55:59.670Z,21.25
2022-09-06T08:58:46.904Z,21.05
2022-09-06T09:01:25.283Z,20.87
2022-09-06T09:03:57.946Z,20.68
2022-09-06T09:06:27.676Z,20.46
2022-09-06T09:09:06.598Z,20.48
2022-09-06T09:11:40.445Z,20.57
2022-09-06T09:14:24.685Z,20.70
2022-09-06T09:16:55.385Z,20.69
2022-09-06T09:19:23.742Z,20.67
2022-09-06T09:21:52.139Z,20.76
2022-09-06T09:24:20.569Z,20.87
2022-09-06T09:26:57.483Z,20.98
2022-09-06T09:29:29.490Z,21.13
2022-09-06T09:31:59.866Z,21.28
2022-09-06T09:34:39.976Z,21.35
2022-09-06T09:40:08.392Z,21.10
2022-09-06T09:42:37.476Z,21.09
2022-09-06T09:45:21.500Z,21.06
2022-09-06T09:47:50.008Z,21.12
2022-09-06T09:50:34.178Z,21.23
2022-09-06T09:53:12.258Z,21.28
2022-09-06T09:55:42.214Z,21.32
2022-09-06T09:58:43.468Z,21.28
2022-09-06T10:01:18.611Z,21.27
2022-09-06T10:09:39.475Z,21.38
2022-09-06T10:12:08.491Z,21.47
2022-09-06T10:14:43.177Z,21.47
2022-09-06T10:17:43.605Z,21.46
2022-09-06T10:20:12.957Z,21.53
2022-09-06T10:22:47.322Z,21.61
2022-09-06T10:25:49.806Z,21.70
2022-09-06T10:28:36.867Z,21.62
2022-09-06T10:31:24.276Z,21.55
2022-09-06T10:34:03.298Z,21.54
2022-09-06T10:36:39.122Z,21.66
2022-09-06T10:39:39.284Z,21.74
2022-09-06T10:42:35.183Z,21.82
2022-09-06T10:45:09.547Z,21.95
2022-09-06T10:47:56.485Z,22.10
2022-09-06T10:50:38.772Z,22.19
2022-09-06T10:53:32.152Z,22.12
2022-09-06T10:56:09.114Z,22.17
2022-09-06T11:01:54.286Z,22.43
2022-09-06T11:04:29.686Z,22.48
2022-09-06T11:07:14.575Z,22.50
2022-09-06T11:10:03.485Z,22.54
2022-09-06T11:13:06.942Z,22.63
2022-09-06T11:15:42.751Z,22.76
2022-09-06T11:18:29.986Z,22.87
2022-09-06T11:21:36.627Z,22.96
2022-09-06T11:24:13.927Z,23.08
2022-09-06T11:27:19.984Z,22.97
2022-09-06T11:29:56.660Z,23.03
2022-09-06T11:32:38.075Z,23.07
2022-09-06T11:35:11.829Z,23.08
2022-09-06T11:37:45.059Z,23.07
2022-09-06T11:42:59.454Z,23.27
2022-09-06T11:45:45.536Z,23.35
2022-09-06T11:48:35.231Z,23.45
2022-09-06T11:51:13.342Z,23.58
2022-09-06T11:53:52.039Z,23.65
2022-09-06T11:56:28.473Z,23.66
2022-09-06T11:59:04.404Z,23.63
2022-09-06T12:01:35.676Z,23.60
2022-09-06T12:04:07.598Z,23.58
2022-09-06T12:06:41.654Z,23.60
2022-09-06T12:09:46.382Z,23.65
2022-09-06T12:12:39.435Z,23.75
2022-09-06T12:15:52.359Z,23.82
2022-09-06T12:18:48.784Z,23.87
2022-09-06T12:21:32.432Z,23.85
2022-09-06T12:24:02.177Z,23.90
2022-09-06T12:27:07.320Z,23.91
2022-09-06T12:29:36.055Z,24.01
2022-09-06T12:32:06.442Z,24.08
2022-09-06T12:34:35.830Z,24.16
2022-09-06T12:37:07.303Z,24.21
2022-09-06T12:39:36.219Z,24.26
2022-09-06T12:42:07.518Z,24.33
2022-09-06T12:44:40.621Z,24.37
2022-09-06T12:47:33.046Z,24.37
2022-09-06T12:50:20.167Z,24.37
2022-09-06T12:52:50.350Z,24.38
2022-09-06T12:55:39.330Z,24.44
2022-09-06T12:58:10.755Z,24.51
2022-09-06T13:00:47.654Z,24.56
2022-09-06T13:03:28.340Z,24.58
2022-09-06T13:06:02.882Z,24.65
2022-09-06T13:08:48.830Z,24.76
2022-09-06T13:11:26.031Z,24.80
2022-09-06T13:13:56.383Z,24.87
2022-09-06T13:16:31.826Z,24.87
2022-09-06T13:19:29.842Z,24.89
2022-09-06T13:22:02.462Z,24.79
2022-09-06T13:24:33.761Z,24.76
2022-09-06T13:27:22.805Z,24.80
2022-09-06T13:30:12.926Z,24.75
2022-09-06T13:32:48.361Z,24.75
2022-09-06T13:35:25.926Z,24.68
2022-09-06T13:38:31.165Z,24.67
2022-09-06T13:41:12.567Z,24.63
2022-09-06T13:43:45.498Z,24.58
2022-09-06T13:46:13.915Z,24.46
2022-09-06T13:48:44.691Z,24.45
2022-09-06T13:51:13.780Z,24.46
2022-09-06T13:53:45.138Z,24.44
2022-09-06T13:56:13.690Z,24.45
2022-09-06T13:58:43.831Z,24.43
2022-09-06T14:01:14.730Z,24.46
2022-09-06T14:03:43.577Z,24.48
2022-09-06T14:06:12.755Z,24.50
2022-09-06T14:09:05.895Z,24.60
2022-09-06T14:11:29.992Z,24.64
2022-09-06T14:13:58.573Z,24.65
2022-09-06T14:16:27.115Z,24.68
2022-09-06T14:18:56.359Z,24.68
2022-09-06T14:21:25.157Z,24.68
2022-09-06T14:23:54.081Z,24.71
2022-09-06T14:26:23.124Z,24.72
2022-09-06T14:28:51.695Z,24.76
2022-09-06T14:31:28.398Z,24.78
2022-09-06T14:34:02.301Z,24.75
2022-09-06T14:36:34.400Z,24.70
2022-09-06T14:39:04.040Z,24.64
2022-09-06T14:41:32.514Z,24.62
2022-09-06T14:44:04.423Z,24.59
2022-09-06T14:46:33.131Z,24.58
2022-09-06T14:49:07.280Z,24.57
2022-09-06T14:51:40.085Z,24.51
2022-09-06T14:54:11.359Z,24.54
2022-09-06T14:56:43.084Z,24.56
2022-09-06T14:59:12.215Z,24.57
2022-09-06T15:01:41.217Z,24.60
2022-09-06T15:04:10.704Z,24.55
2022-09-06T15:06:40.838Z,24.48
2022-09-06T15:09:24.166Z,24.44
2022-09-06T15:11:55.899Z,24.41
2022-09-06T15:14:28.088Z,24.38
2022-09-06T15:16:59.619Z,24.38
2022-09-06T15:19:29.614Z,24.38
2022-09-06T15:21:58.080Z,24.35
2022-09-06T15:24:28.753Z,24.36
2022-09-06T15:26:57.630Z,24.38
2022-09-06T15:29:27.374Z,24.38
2022-09-06T15:31:56.107Z,24.40
2022-09-06T15:34:26.498Z,24.38
2022-09-06T15:36:56.622Z,24.31
2022-09-06T15:39:25.430Z,24.29
2022-09-06T15:41:54.005Z,24.29
2022-09-06T15:44:22.325Z,24.26
2022-09-06T15:46:54.030Z,24.24
2022-09-06T15:49:28.785Z,24.18
2022-09-06T15:51:58.767Z,24.12
2022-09-06T15:54:46.712Z,24.08
2022-09-06T15:57:17.047Z,24.02
2022-09-06T15:59:52.821Z,23.98
2022-09-06T16:02:21.325Z,23.95
2022-09-06T16:04:49.703Z,23.95
2022-09-06T16:07:18.289Z,23.98
2022-09-06T16:09:46.751Z,23.96
2022-09-06T16:12:15.079Z,23.91
2022-09-06T16:14:43.530Z,23.83
2022-09-06T16:17:12.346Z,23.80
2022-09-06T16:19:41.498Z,23.77
2022-09-06T16:22:18.970Z,23.74
2022-09-06T16:24:47.506Z,23.74
2022-09-06T16:27:16.162Z,23.73
2022-09-06T16:29:45.240Z,23.72
2022-09-06T16:32:20.193Z,23.69
2022-09-06T16:34:49.180Z,23.63
2022-09-06T16:37:17.667Z,23.62
2022-09-06T16:39:46.608Z,23.60
2022-09-06T16:42:15.032Z,23.57
2022-09-06T16:44:44.765Z,23.56
2022-09-06T16:47:16.444Z,23.56
2022-09-06T16:49:45.190Z,23.55
2022-09-06T16:52:14.596Z,23.53
2022-09-06T16:54:43.067Z,23.52
2022-09-06T16:57:11.373Z,23.50
2022-09-06T16:59:39.841Z,23.50
2022-09-06T17:02:08.718Z,23.49
2022-09-06T17:04:38.134Z,23.47
2022-09-06T17:07:06.612Z,23.45
2022-09-06T17:09:35.304Z,23.39
2022-09-06T17:12:04.834Z,23.32
2022-09-06T17:14:33.216Z,23.24
2022-09-06T17:17:07.645Z,23.18
2022-09-06T17:19:37.790Z,23.11
2022-09-06T17:22:06.324Z,23.06
2022-09-06T17:24:34.700Z,23.01
2022-09-06T17:27:04.414Z,22.97
2022-09-06T17:29:33.064Z,22.90
2022-09-06T17:32:03.893Z,22.85
2022-09-06T17:34:32.378Z,22.82
2022-09-06T17:37:00.821Z,22.81
2022-09-06T17:39:29.298Z,22.78
2022-09-06T17:41:59.116Z,22.75
2022-09-06T17:44:27.660Z,22.72
2022-09-06T17:47:12.007Z,22.68
2022-09-06T17:49:42.526Z,22.65
2022-09-06T17:52:11.987Z,22.60
2022-09-06T17:54:40.371Z,22.56
2022-09-06T17:57:08.717Z,22.53
2022-09-06T17:59:38.570Z,22.50
2022-09-06T18:02:07.517Z,22.48
2022-09-06T18:04:36.712Z,22.44
2022-09-06T18:07:05.266Z,22.39
2022-09-06T18:09:34.010Z,22.33
2022-09-06T18:12:02.863Z,22.31
2022-09-06T18:14:31.592Z,22.29
2022-09-06T18:16:59.985Z,22.26
2022-09-06T18:19:28.552Z,22.20
2022-09-06T18:21:57.817Z,22.17
2022-09-06T18:24:26.233Z,22.17
2022-09-06T18:26:55.410Z,22.14
2022-09-06T18:29:25.229Z,22.09
2022-09-06T18:31:54.128Z,22.05
2022-09-06T18:34:22.826Z,22.03
2022-09-06T18:36:51.327Z,21.99
2022-09-06T18:39:20.357Z,21.96
2022-09-06T18:42:00.843Z,21.90
2022-09-06T18:44:32.438Z,21.85
2022-09-06T18:47:03.766Z,21.79
2022-09-06T18:49:33.765Z,21.73
2022-09-06T18:52:05.453Z,21.64
2022-09-06T18:54:34.773Z,21.58
2022-09-06T18:57:03.535Z,21.52
2022-09-06T18:59:31.972Z,21.49
2022-09-06T19:02:00.630Z,21.43
2022-09-06T19:04:29.276Z,21.38
2022-09-06T19:06:57.612Z,21.33
2022-09-06T19:09:26.027Z,21.30
2022-09-06T19:11:56.962Z,21.26
2022-09-06T19:14:26.137Z,21.21
2022-09-06T19:16:54.619Z,21.16
2022-09-06T19:19:23.329Z,21.09
2022-09-06T19:21:51.825Z,21.02
2022-09-06T19:24:22.770Z,20.98
2022-09-06T19:26:52.821Z,20.92
2022-09-06T19:29:21.331Z,20.88
2022-09-06T19:31:49.860Z,20.82
2022-09-06T19:34:18.845Z,20.77
2022-09-06T19:36:47.229Z,20.72
2022-09-06T19:39:16.823Z,20.69
2022-09-06T19:41:47.084Z,20.66
2022-09-06T19:44:16.916Z,20.64
2022-09-06T19:46:46.938Z,20.61
2022-09-06T19:49:16.945Z,20.55
2022-09-06T19:51:48.074Z,20.53
2022-09-06T19:54:17.358Z,20.48
2022-09-06T19:56:48.057Z,20.44
2022-09-06T19:59:17.923Z,20.40
2022-09-06T20:01:47.784Z,20.38
2022-09-06T20:04:16.594Z,20.36
2022-09-06T20:06:46.701Z,20.34
2022-09-06T20:09:17.837Z,20.30
2022-09-06T20:11:46.436Z,20.27
2022-09-06T20:14:14.826Z,20.24
2022-09-06T20:16:43.423Z,20.22
2022-09-06T20:19:14.609Z,20.20
2022-09-06T20:21:43.262Z,20.17
2022-09-06T20:24:11.773Z,20.16
2022-09-06T20:26:40.698Z,20.13
2022-09-06T20:29:09.774Z,20.09
2022-09-06T20:31:38.587Z,20.05
2022-09-06T20:34:07.464Z,20.00
2022-09-06T20:36:36.206Z,19.98
2022-09-06T20:39:05.045Z,19.98
2022-09-06T20:41:34.571Z,19.95
2022-09-06T20:44:03.766Z,19.95
2022-09-06T20:46:35.131Z,19.90
2022-09-06T20:49:05.134Z,19.88
2022-09-06T20:51:36.049Z,19.84
2022-09-06T20:54:05.659Z,19.82
2022-09-06T20:56:38.497Z,19.77
2022-09-06T20:59:14.011Z,19.76
2022-09-06T21:01:45.845Z,19.72
2022-09-06T21:04:16.016Z,19.68
2022-09-06T21:06:51.089Z,19.64
2022-09-06T21:09:20.365Z,19.62
2022-09-06T21:11:48.747Z,19.59
2022-09-06T21:14:17.279Z,19.58
2022-09-06T21:16:46.038Z,19.56
2022-09-06T21:19:14.544Z,19.55
2022-09-06T21:21:44.115Z,19.54
2022-09-06T21:24:13.783Z,19.50
2022-09-06T21:26:46.346Z,19.47
2022-09-06T21:29:16.035Z,19.46
2022-09-06T21:31:45.371Z,19.45
2022-09-06T21:34:17.223Z,19.43
2022-09-06T21:36:46.090Z,19.42
2022-09-06T21:39:14.836Z,19.43
2022-09-06T21:41:44.073Z,19.44
2022-09-06T21:44:13.316Z,19.44
2022-09-06T21:46:43.108Z,19.42
2022-09-06T21:49:15.192Z,19.38
2022-09-06T21:51:43.709Z,19.37
2022-09-06T21:54:12.320Z,19.37
2022-09-06T21:56:41.542Z,19.36
2022-09-06T21:59:11.010Z,19.36
2022-09-06T22:01:40.827Z,19.35
2022-09-06T22:04:09.705Z,19.33
2022-09-06T22:06:38.671Z,19.31
2022-09-06T22:09:13.599Z,19.27
2022-09-06T22:11:51.279Z,19.25
2022-09-06T22:14:19.690Z,19.23
2022-09-06T22:16:48.984Z,19.23
2022-09-06T22:19:18.517Z,19.22
2022-09-06T22:21:47.027Z,19.18
2022-09-06T22:24:16.469Z,19.13
2022-09-06T22:26:45.761Z,19.13
2022-09-06T22:29:15.383Z,19.09
2022-09-06T22:31:43.975Z,19.05
2022-09-06T22:34:13.296Z,19.03
2022-09-06T22:36:44.811Z,19.02
2022-09-06T22:39:13.299Z,18.99
2022-09-06T22:41:41.852Z,18.95
2022-09-06T22:44:10.488Z,18.95
2022-09-06T22:46:38.997Z,18.93
2022-09-06T22:49:08.065Z,18.93
2022-09-06T22:51:36.511Z,18.91
2022-09-06T22:54:05.070Z,18.91
2022-09-06T22:56:33.744Z,18.87
2022-09-06T22:59:02.463Z,18.87
2022-09-06T23:01:32.813Z,18.88
2022-09-06T23:04:01.275Z,18.84
2022-09-06T23:06:29.643Z,18.79
2022-09-06T23:08:58.645Z,18.75
2022-09-06T23:11:28.171Z,18.76
2022-09-06T23:14:00.941Z,18.76
2022-09-06T23:16:29.655Z,18.75
2022-09-06T23:18:58.193Z,18.73
2022-09-06T23:21:27.083Z,18.70
2022-09-06T23:23:57.171Z,18.69
2022-09-06T23:26:29.540Z,18.69
2022-09-06T23:28:58.657Z,18.70
2022-09-06T23:31:32.791Z,18.69
2022-09-06T23:34:02.226Z,18.70
2022-09-06T23:36:31.987Z,18.69
2022-09-06T23:39:02.366Z,18.67
2022-09-06T23:41:31.198Z,18.67
2022-09-06T23:44:00.677Z,18.67
2022-09-06T23:46:30.641Z,18.63
2022-09-06T23:48:59.200Z,18.57
2022-09-06T23:51:27.968Z,18.54
2022-09-06T23:53:56.406Z,18.53
2022-09-06T23:56:24.980Z,18.51
2022-09-06T23:58:54.640Z,18.50
